createdAt,value
2017-02-26T00:23:19.917Z,94.3
2017-02-26T00:24:22.430Z,94.3
2017-02-26T00:25:24.939Z,94.3
2017-02-26T00:26:27.442Z,94.3
2017-02-26T00:27:29.791Z,94.3
2017-02-26T00:28:33.094Z,94.3
2017-02-26T00:30:37.540Z,94.3
2017-02-26T00:31:40.553Z,94.3
2017-02-26T00:32:43.054Z,94.3
2017-02-26T00:34:48.264Z,94.3
2017-02-26T00:38:58.509Z,94.3
2017-02-26T00:46:16.719Z,94.3
2017-02-26T00:49:24.542Z,94.3
2017-02-26T00:50:27.043Z,94.3
2017-02-26T00:52:32.261Z,94.3
2017-02-26T00:54:37.192Z,94.3
2017-02-26T00:55:40.036Z,94.3
2017-02-26T00:59:50.572Z,94.3
2017-02-26T01:07:08.767Z,94.3
2017-02-26T01:08:11.270Z,94.3
2017-02-26T01:53:02.602Z,94.3
2017-02-26T01:56:10.431Z,94.3
2017-02-26T01:57:12.936Z,94.3
2017-02-26T02:14:57.257Z,94.3
2017-02-26T02:15:59.759Z,94.3
2017-02-26T02:17:02.265Z,94.3
2017-02-26T02:18:04.782Z,94.3
2017-02-26T02:19:07.288Z,94.3
2017-02-26T02:20:09.880Z,94.3
2017-02-26T02:21:12.406Z,94.3
2017-02-26T02:22:15.439Z,94.3
2017-02-26T02:23:17.948Z,94.3
2017-02-26T02:24:20.342Z,94.3
2017-02-26T02:25:23.105Z,94.3
2017-02-26T02:26:25.609Z,94.3
2017-02-26T02:27:28.109Z,94.3
2017-02-26T02:28:30.619Z,94.3
2017-02-26T02:29:33.625Z,94.3
2017-02-26T02:30:36.387Z,94.3
2017-02-26T02:31:38.392Z,94.4
2017-02-26T02:32:41.460Z,94.4
2017-02-26T02:33:43.961Z,94.4
2017-02-26T02:34:46.377Z,94.4
2017-02-26T02:35:49.162Z,94.4
2017-02-26T02:36:52.213Z,94.4
2017-02-26T02:37:54.222Z,94.4
2017-02-26T02:38:56.728Z,94.4
2017-02-26T02:39:59.808Z,94.4
2017-02-26T02:41:02.113Z,94.4
2017-02-26T02:42:04.621Z,94.4
2017-02-26T02:44:09.577Z,94.4
2017-02-26T02:45:12.084Z,94.4
2017-02-26T02:46:15.342Z,94.4
2017-02-26T02:47:17.535Z,94.4
2017-02-26T02:48:20.039Z,94.4
2017-02-26T02:49:22.537Z,94.4
2017-02-26T02:50:25.053Z,94.4
2017-02-26T02:51:28.858Z,94.4
2017-02-26T02:52:30.189Z,94.4
2017-02-26T02:53:33.200Z,94.4
2017-02-26T02:54:35.710Z,94.4
2017-02-26T02:55:38.224Z,94.4
2017-02-26T02:56:40.994Z,94.4
2017-02-26T02:57:43.498Z,94.4
2017-02-26T02:58:46.014Z,94.4
2017-02-26T02:59:48.367Z,94.4
2017-02-26T03:00:51.407Z,94.4
2017-02-26T03:01:54.176Z,94.4
2017-02-26T03:02:56.175Z,94.4
2017-02-26T03:03:58.709Z,94.4
2017-02-26T03:05:01.716Z,94.4
2017-02-26T03:06:04.231Z,94.4
2017-02-26T03:07:06.983Z,94.4
2017-02-26T03:08:09.318Z,94.4
2017-02-26T03:09:12.163Z,94.4
2017-02-26T03:10:14.674Z,94.4
2017-02-26T03:11:17.013Z,94.4
2017-02-26T03:12:19.821Z,94.4
2017-02-26T03:13:22.326Z,94.4
2017-02-26T03:14:24.833Z,94.4
2017-02-26T03:15:27.348Z,94.4
2017-02-26T03:16:29.856Z,94.4
2017-02-26T03:17:32.944Z,94.4
2017-02-26T03:18:35.457Z,94.4
2017-02-26T03:19:37.959Z,94.5
2017-02-26T03:20:40.312Z,94.5
2017-02-26T03:21:43.159Z,94.5
2017-02-26T03:22:45.977Z,94.5
2017-02-26T03:23:47.977Z,94.5
2017-02-26T03:24:50.989Z,94.5
2017-02-26T03:25:53.492Z,94.5
2017-02-26T03:26:56.040Z,94.5
2017-02-26T03:27:58.842Z,94.5
2017-02-26T03:29:01.344Z,94.5
2017-02-26T03:31:06.259Z,94.5
2017-02-26T03:32:08.781Z,94.5
2017-02-26T03:33:12.576Z,94.5
2017-02-26T03:38:24.549Z,94.5
2017-02-26T03:48:50.490Z,94.5
2017-02-26T03:53:00.693Z,94.5
2017-02-26T03:55:06.312Z,94.5
2017-02-26T03:58:13.576Z,94.5
2017-02-26T03:59:16.544Z,94.5
2017-02-26T04:01:21.681Z,94.5
2017-02-26T04:02:24.141Z,94.5
2017-02-26T04:04:29.520Z,94.5
2017-02-26T04:14:55.400Z,94.6
2017-02-26T04:20:08.279Z,94.6
2017-02-26T04:44:07.938Z,94.6
2017-02-26T04:45:10.394Z,94.6
2017-02-26T04:46:12.846Z,94.6
2017-02-26T04:47:15.798Z,94.6
2017-02-26T04:51:26.261Z,94.6
2017-02-26T04:52:28.722Z,94.6
2017-02-26T04:53:31.027Z,94.6
2017-02-26T04:55:36.920Z,94.6
2017-02-26T04:56:39.162Z,94.6
2017-02-26T04:57:41.614Z,94.6
2017-02-26T04:58:44.087Z,94.6
2017-02-26T04:59:46.539Z,94.6
2017-02-26T05:00:49.492Z,94.6
2017-02-26T05:01:52.207Z,94.6
2017-02-26T05:02:54.685Z,94.6
2017-02-26T05:03:57.154Z,94.6
2017-02-26T05:04:59.613Z,94.6
2017-02-26T05:06:02.098Z,94.6
2017-02-26T05:07:05.318Z,94.6
2017-02-26T05:08:07.274Z,94.6
2017-02-26T05:09:10.077Z,94.6
2017-02-26T05:10:12.541Z,94.6
2017-02-26T05:11:15.021Z,94.6
2017-02-26T05:14:23.052Z,94.6
2017-02-26T05:16:27.934Z,94.6
2017-02-26T05:17:30.908Z,94.6
2017-02-26T05:19:36.040Z,94.6
2017-02-26T05:20:38.152Z,94.6
2017-02-26T05:21:41.121Z,94.6
2017-02-26T05:22:43.922Z,94.6
2017-02-26T05:23:46.896Z,94.6
2017-02-26T05:24:49.099Z,94.6
2017-02-26T05:25:51.553Z,94.6
2017-02-26T05:26:54.020Z,94.6
2017-02-26T05:27:56.486Z,94.6
2017-02-26T05:30:02.161Z,94.6
2017-02-26T05:31:04.505Z,94.6
2017-02-26T05:32:06.960Z,94.6
2017-02-26T05:33:09.638Z,94.6
2017-02-26T05:35:15.090Z,94.6
2017-02-26T05:36:17.592Z,94.6
2017-02-26T05:37:20.083Z,94.6
2017-02-26T05:38:22.533Z,94.6
2017-02-26T05:39:25.320Z,94.6
2017-02-26T05:40:28.077Z,94.6
2017-02-26T05:42:32.937Z,94.7
2017-02-26T05:43:35.409Z,94.6
2017-02-26T05:44:37.902Z,94.7
2017-02-26T05:45:41.103Z,94.7
2017-02-26T05:47:45.961Z,94.6
2017-02-26T05:48:48.434Z,94.7
2017-02-26T05:49:50.886Z,94.7
2017-02-26T05:50:54.089Z,94.7
2017-02-26T05:55:04.277Z,94.7
2017-02-26T05:56:07.059Z,94.7
2017-02-26T05:57:09.185Z,94.7
2017-02-26T05:58:11.632Z,94.7
2017-02-26T05:59:14.442Z,94.7
2017-02-26T06:00:17.234Z,94.7
2017-02-26T06:01:19.853Z,94.7
2017-02-26T06:02:22.309Z,94.7
2017-02-26T06:09:40.458Z,94.7
2017-02-26T06:10:42.955Z,94.7
2017-02-26T06:11:45.419Z,94.7
2017-02-26T06:12:47.884Z,94.7
2017-02-26T06:13:50.844Z,94.7
2017-02-26T06:22:11.952Z,94.7
2017-02-26T06:28:27.212Z,94.7
2017-02-26T06:30:32.070Z,94.7
2017-02-26T06:43:03.600Z,94.7
2017-02-26T06:44:06.053Z,94.7
2017-02-26T06:53:29.394Z,94.7
2017-02-26T06:54:31.858Z,94.7
2017-02-26T06:56:36.751Z,94.6
2017-02-26T06:57:39.728Z,94.7
2017-02-26T06:58:42.274Z,94.6
2017-02-26T07:01:49.877Z,94.6
2017-02-26T07:02:52.341Z,94.6
2017-02-26T07:03:55.596Z,94.6
2017-02-26T07:04:57.547Z,94.6
2017-02-26T07:06:00.549Z,94.6
2017-02-26T07:07:03.002Z,94.6
2017-02-26T07:08:05.455Z,94.6
2017-02-26T07:09:08.157Z,94.6
2017-02-26T07:10:10.639Z,94.6
2017-02-26T07:11:13.104Z,94.6
2017-02-26T07:12:16.062Z,94.6
2017-02-26T07:13:18.544Z,94.6
2017-02-26T07:14:21.265Z,94.6
2017-02-26T07:15:23.716Z,94.6
2017-02-26T07:16:25.999Z,94.6
2017-02-26T07:17:28.979Z,94.6
2017-02-26T07:18:31.432Z,94.6
2017-02-26T07:19:34.132Z,94.6
2017-02-26T07:20:37.115Z,94.6
2017-02-26T07:21:38.895Z,94.6
2017-02-26T07:22:41.862Z,94.6
2017-02-26T07:23:44.322Z,94.6
2017-02-26T07:24:47.051Z,94.6
2017-02-26T07:25:49.511Z,94.6
2017-02-26T07:26:51.999Z,94.6
2017-02-26T07:27:54.450Z,94.6
2017-02-26T07:28:57.407Z,94.6
2017-02-26T07:31:03.069Z,94.6
2017-02-26T07:32:05.035Z,94.6
2017-02-26T07:33:07.844Z,94.6
2017-02-26T07:34:10.134Z,94.6
2017-02-26T07:35:13.101Z,94.6
2017-02-26T07:36:15.639Z,94.6
2017-02-26T07:37:18.104Z,94.6
2017-02-26T07:38:20.921Z,94.6
2017-02-26T07:40:25.778Z,94.6
2017-02-26T07:41:28.529Z,94.5
2017-02-26T07:42:30.829Z,94.5
2017-02-26T07:43:33.786Z,94.5
2017-02-26T07:44:36.242Z,94.5
2017-02-26T07:45:38.690Z,94.5
2017-02-26T07:46:41.782Z,94.5
2017-02-26T07:47:44.234Z,94.5
2017-02-26T07:48:46.544Z,94.5
2017-02-26T07:49:49.039Z,94.5
2017-02-26T07:50:52.003Z,94.5
2017-02-26T07:51:54.703Z,94.5
2017-02-26T07:52:57.159Z,94.5
2017-02-26T07:53:59.640Z,94.5
2017-02-26T07:55:02.102Z,94.5
2017-02-26T07:56:04.552Z,94.5
2017-02-26T07:57:07.602Z,94.5
2017-02-26T07:58:10.049Z,94.5
2017-02-26T07:59:12.837Z,94.4
2017-02-26T08:00:15.291Z,94.4
2017-02-26T08:01:18.283Z,94.4
2017-02-26T08:02:20.532Z,94.4
2017-02-26T08:03:22.992Z,94.4
2017-02-26T08:04:25.456Z,94.4
2017-02-26T08:06:30.820Z,94.4
2017-02-26T08:07:33.571Z,94.4
2017-02-26T08:08:35.855Z,94.4
2017-02-26T08:09:38.334Z,94.4
2017-02-26T08:10:41.302Z,94.4
2017-02-26T08:11:43.762Z,94.4
2017-02-26T08:12:46.474Z,94.4
2017-02-26T08:13:48.921Z,94.4
2017-02-26T08:14:51.210Z,94.4
2017-02-26T08:15:54.002Z,94.4
2017-02-26T08:16:56.962Z,94.4
2017-02-26T08:17:59.741Z,94.4
2017-02-26T08:19:02.199Z,94.4
2017-02-26T08:20:04.507Z,94.4
2017-02-26T08:21:06.967Z,94.3
2017-02-26T08:22:09.929Z,94.3
2017-02-26T08:23:12.716Z,94.3
2017-02-26T08:24:15.182Z,94.3
2017-02-26T08:25:17.634Z,94.3
2017-02-26T08:26:19.916Z,94.3
2017-02-26T08:27:22.872Z,94.3
2017-02-26T08:28:25.767Z,94.3
2017-02-26T08:29:27.717Z,94.3
2017-02-26T08:31:33.096Z,94.3
2017-02-26T08:32:35.548Z,94.2
2017-02-26T08:33:38.756Z,94.2
2017-02-26T08:34:41.205Z,94.2
2017-02-26T08:35:43.531Z,94.2
2017-02-26T08:36:46.010Z,94.2
2017-02-26T08:37:48.805Z,94.2
2017-02-26T08:38:51.508Z,94.2
2017-02-26T08:39:53.801Z,94.2
2017-02-26T08:40:56.763Z,94.2
2017-02-26T08:41:59.216Z,94.2
2017-02-26T08:43:01.684Z,94.2
2017-02-26T08:44:04.890Z,94.2
2017-02-26T08:45:06.838Z,94.2
2017-02-26T08:46:09.795Z,94.1
2017-02-26T08:47:12.256Z,94.1
2017-02-26T08:48:14.537Z,94.1
2017-02-26T08:49:17.810Z,94.1
2017-02-26T08:50:20.092Z,94
2017-02-26T08:51:22.396Z,94
2017-02-26T08:52:25.360Z,94
2017-02-26T08:53:27.655Z,94
2017-02-26T08:54:30.888Z,94
2017-02-26T08:55:32.835Z,94
2017-02-26T08:56:35.808Z,93.9
2017-02-26T08:57:38.262Z,93.9
2017-02-26T08:58:40.714Z,93.9
2017-02-26T08:59:43.762Z,93.8
2017-02-26T09:01:48.517Z,93.8
2017-02-26T09:02:51.467Z,93.8
2017-02-26T09:03:53.925Z,93.7
2017-02-26T09:04:56.713Z,93.7
2017-02-26T09:05:59.176Z,93.7
2017-02-26T09:07:01.632Z,93.7
2017-02-26T09:08:04.591Z,93.6
2017-02-26T09:09:07.041Z,93.6
2017-02-26T09:10:09.794Z,93.6
2017-02-26T09:11:12.249Z,93.6
2017-02-26T09:12:14.531Z,93.6
2017-02-26T09:13:17.316Z,93.5
2017-02-26T09:14:20.101Z,93.5
2017-02-26T09:15:22.825Z,93.5
2017-02-26T09:16:25.282Z,93.5
2017-02-26T09:17:28.073Z,93.4
2017-02-26T09:18:30.536Z,93.4
2017-02-26T09:19:32.986Z,93.4
2017-02-26T09:20:36.195Z,93.4
2017-02-26T09:21:38.143Z,93.4
2017-02-26T09:22:41.095Z,93.4
2017-02-26T09:23:43.575Z,93.4
2017-02-26T09:24:46.369Z,93.3
2017-02-26T09:25:49.124Z,93.3
2017-02-26T09:26:51.584Z,93.3
2017-02-26T09:27:54.044Z,93.3
2017-02-26T09:28:56.517Z,93.3
2017-02-26T09:29:59.469Z,93.3
2017-02-26T09:32:04.670Z,93.3
2017-02-26T09:33:07.118Z,93.3
2017-02-26T09:34:10.152Z,93.4
2017-02-26T09:35:13.032Z,93.3
2017-02-26T09:36:14.825Z,93.3
2017-02-26T09:37:17.530Z,93.3
2017-02-26T09:38:20.313Z,93.3
2017-02-26T09:39:22.766Z,93.3
2017-02-26T09:40:25.229Z,93.3
2017-02-26T09:41:28.182Z,93.4
2017-02-26T09:42:30.892Z,93.4
2017-02-26T09:43:33.340Z,93.4
2017-02-26T09:44:35.652Z,93.4
2017-02-26T09:45:38.607Z,93.4
2017-02-26T09:46:41.056Z,93.4
2017-02-26T09:47:43.757Z,93.4
2017-02-26T09:48:45.880Z,93.4
2017-02-26T09:49:48.839Z,93.4
2017-02-26T09:50:51.324Z,93.4
2017-02-26T09:51:54.279Z,93.4
2017-02-26T09:52:57.000Z,93.4
2017-02-26T09:53:59.490Z,93.5
2017-02-26T09:55:01.961Z,93.5
2017-02-26T09:56:04.431Z,93.5
2017-02-26T09:57:07.386Z,93.5
2017-02-26T09:58:10.142Z,93.5
2017-02-26T09:59:12.605Z,93.5
2017-02-26T10:00:15.056Z,93.5
2017-02-26T10:01:17.520Z,93.5
2017-02-26T10:02:19.986Z,93.5
2017-02-26T10:03:23.254Z,93.5
2017-02-26T10:04:25.551Z,93.5
2017-02-26T10:05:28.009Z,93.5
2017-02-26T10:06:30.797Z,93.5
2017-02-26T10:07:33.267Z,93.5
2017-02-26T10:08:36.028Z,93.5
2017-02-26T10:09:38.494Z,93.5
2017-02-26T10:10:40.945Z,93.6
2017-02-26T10:11:43.909Z,93.6
2017-02-26T10:12:46.906Z,93.6
2017-02-26T10:13:48.950Z,93.6
2017-02-26T10:14:51.404Z,93.6
2017-02-26T10:15:54.357Z,93.7
2017-02-26T10:16:56.656Z,93.7
2017-02-26T10:17:59.644Z,93.7
2017-02-26T10:19:02.354Z,93.7
2017-02-26T10:20:04.819Z,93.7
2017-02-26T10:21:07.281Z,93.7
2017-02-26T10:22:09.732Z,93.7
2017-02-26T10:23:12.696Z,93.8
2017-02-26T10:25:17.810Z,93.7
2017-02-26T10:26:20.266Z,93.7
2017-02-26T10:27:22.732Z,93.7
2017-02-26T10:29:27.900Z,93.7
2017-02-26T10:30:31.122Z,93.7
2017-02-26T10:31:33.574Z,93.7
2017-02-26T10:32:35.858Z,93.7
2017-02-26T10:33:38.331Z,93.7
2017-02-26T10:34:41.125Z,93.7
2017-02-26T10:35:43.878Z,93.6
2017-02-26T10:36:46.336Z,93.6
2017-02-26T10:37:48.786Z,93.6
2017-02-26T10:38:51.741Z,93.6
2017-02-26T10:39:54.029Z,93.5
2017-02-26T10:40:57.235Z,93.5
2017-02-26T10:41:59.695Z,93.5
2017-02-26T10:43:02.736Z,93.4
2017-02-26T10:44:04.716Z,93.4
2017-02-26T10:45:07.174Z,93.4
2017-02-26T10:46:10.416Z,93.4
2017-02-26T10:48:15.115Z,93.4
2017-02-26T10:49:17.400Z,93.4
2017-02-26T10:50:20.363Z,93.4
2017-02-26T10:51:23.072Z,93.4
2017-02-26T10:52:25.528Z,93.4
2017-02-26T10:53:28.152Z,93.4
2017-02-26T10:54:30.608Z,93.4
2017-02-26T10:55:33.419Z,93.3
2017-02-26T10:56:36.132Z,93.3
2017-02-26T10:57:38.606Z,93.3
2017-02-26T10:58:41.571Z,93.3
2017-02-26T10:59:44.030Z,93.3
2017-02-26T11:00:46.487Z,93.3
2017-02-26T11:01:49.243Z,93.3
2017-02-26T11:02:52.037Z,93.3
2017-02-26T11:03:54.498Z,93.2
2017-02-26T11:04:56.977Z,93.2
2017-02-26T11:05:59.458Z,93.2
2017-02-26T11:07:02.710Z,93.2
2017-02-26T11:08:04.657Z,93.2
2017-02-26T11:09:07.607Z,93.1
2017-02-26T11:10:10.086Z,93.1
2017-02-26T11:11:12.548Z,93
2017-02-26T11:12:15.822Z,93
2017-02-26T11:13:17.768Z,93
2017-02-26T11:14:20.726Z,92.9
2017-02-26T11:15:23.197Z,92.9
2017-02-26T11:16:25.647Z,92.9
2017-02-26T11:17:28.862Z,92.9
2017-02-26T11:18:31.315Z,92.8
2017-02-26T11:19:33.765Z,92.8
2017-02-26T11:20:36.557Z,92.8
2017-02-26T11:21:39.029Z,92.8
2017-02-26T11:22:41.790Z,92.7
2017-02-26T11:23:44.073Z,92.7
2017-02-26T11:24:47.038Z,92.7
2017-02-26T11:25:49.532Z,92.6
2017-02-26T11:26:52.018Z,92.6
2017-02-26T11:27:54.785Z,92.6
2017-02-26T11:28:57.777Z,92.5
2017-02-26T11:29:59.721Z,92.5
2017-02-26T11:31:02.679Z,92.5
2017-02-26T11:32:05.156Z,92.4
2017-02-26T11:33:07.881Z,92.4
2017-02-26T11:34:10.339Z,92.3
2017-02-26T11:35:13.295Z,92.3
2017-02-26T11:36:15.758Z,92.3
2017-02-26T11:37:18.209Z,92.2
2017-02-26T11:38:21.268Z,92.2
2017-02-26T11:39:23.566Z,92.2
2017-02-26T11:40:26.374Z,92.1
2017-02-26T11:41:29.358Z,92.1
2017-02-26T11:42:31.139Z,92.1
2017-02-26T11:43:34.189Z,92.1
2017-02-26T11:45:39.399Z,92.1
2017-02-26T11:46:41.860Z,92.1
2017-02-26T11:47:44.814Z,92.1
2017-02-26T11:48:47.528Z,92.1
2017-02-26T11:49:49.978Z,92.1
2017-02-26T11:50:52.260Z,92.1
2017-02-26T11:51:55.222Z,92.2
2017-02-26T11:52:57.674Z,92.2
2017-02-26T11:54:00.879Z,92.2
2017-02-26T11:55:03.168Z,92.2
2017-02-26T11:56:05.631Z,92.2
2017-02-26T11:57:08.627Z,92.2
2017-02-26T11:58:11.100Z,92.2
2017-02-26T11:59:13.852Z,92.2
2017-02-26T12:00:16.141Z,92.1
2017-02-26T12:02:21.549Z,92.1
2017-02-26T12:03:24.018Z,92.1
2017-02-26T12:04:27.240Z,92.1
2017-02-26T12:05:29.194Z,92.1
2017-02-26T12:06:32.726Z,92.1
2017-02-26T12:07:34.693Z,92.1
2017-02-26T12:08:37.319Z,92.1
2017-02-26T12:09:40.025Z,92.1
2017-02-26T12:10:42.491Z,92.1
2017-02-26T12:11:44.959Z,92.1
2017-02-26T12:12:47.750Z,92.1
2017-02-26T12:13:50.202Z,92
2017-02-26T12:14:53.262Z,92
2017-02-26T12:15:55.725Z,92
2017-02-26T12:16:58.188Z,92.1
2017-02-26T12:18:01.148Z,92.1
2017-02-26T12:19:03.610Z,92.1
2017-02-26T12:20:06.167Z,92.1
2017-02-26T12:21:08.953Z,92.2
2017-02-26T12:22:11.446Z,92.2
2017-02-26T12:23:13.905Z,92.2
2017-02-26T12:24:16.860Z,92.2
2017-02-26T12:25:19.395Z,92.2
2017-02-26T12:26:21.843Z,92.2
2017-02-26T12:29:30.147Z,92.3
2017-02-26T12:30:32.860Z,92.2
2017-02-26T12:31:35.146Z,92.2
2017-02-26T12:32:37.776Z,92.2
2017-02-26T12:33:40.240Z,92.2
2017-02-26T12:34:43.196Z,92.1
2017-02-26T12:35:45.976Z,92.1
2017-02-26T12:36:48.963Z,92.1
2017-02-26T12:37:50.912Z,92.1
2017-02-26T12:38:53.699Z,92.1
2017-02-26T12:39:56.485Z,92.1
2017-02-26T12:40:59.210Z,92
2017-02-26T12:42:01.668Z,92
2017-02-26T12:43:04.149Z,91.9
2017-02-26T12:45:09.353Z,91.9
2017-02-26T12:46:12.615Z,91.8
2017-02-26T12:47:14.561Z,91.8
2017-02-26T12:48:17.528Z,91.7
2017-02-26T12:49:20.005Z,91.7
2017-02-26T12:50:23.013Z,91.7
2017-02-26T12:51:25.553Z,91.6
2017-02-26T12:52:27.837Z,91.6
2017-02-26T12:53:30.792Z,91.5
2017-02-26T12:54:33.073Z,91.5
2017-02-26T12:55:35.698Z,91.4
2017-02-26T12:56:38.751Z,91.4
2017-02-26T12:57:41.202Z,91.4
2017-02-26T12:58:43.653Z,91.3
2017-02-26T12:59:46.443Z,91.3
2017-02-26T13:00:48.903Z,91.3
2017-02-26T13:01:52.125Z,91.3
2017-02-26T13:02:54.578Z,91.3
2017-02-26T13:03:57.034Z,91.3
2017-02-26T13:04:59.498Z,91.3
2017-02-26T13:06:02.476Z,91.3
2017-02-26T13:07:05.230Z,91.3
2017-02-26T13:08:07.682Z,91.3
2017-02-26T13:09:10.135Z,91.3
2017-02-26T13:10:13.106Z,91.3
2017-02-26T13:11:15.578Z,91.3
2017-02-26T13:12:18.348Z,91.4
2017-02-26T13:13:20.647Z,91.3
2017-02-26T13:14:23.274Z,91.3
2017-02-26T13:15:26.086Z,91.3
2017-02-26T13:16:28.584Z,91.3
2017-02-26T13:17:31.787Z,91.2
2017-02-26T13:19:36.476Z,91.2
2017-02-26T13:20:39.433Z,91.1
2017-02-26T13:21:41.888Z,91.1
2017-02-26T13:22:44.930Z,91.1
2017-02-26T13:23:47.228Z,91
2017-02-26T13:24:50.199Z,91
2017-02-26T13:25:52.659Z,91
2017-02-26T13:26:55.109Z,90.9
2017-02-26T13:27:58.149Z,90.9
2017-02-26T13:29:00.605Z,90.9
2017-02-26T13:30:03.060Z,90.9
2017-02-26T13:31:06.380Z,90.9
2017-02-26T13:32:08.703Z,90.9
2017-02-26T13:33:11.407Z,90.8
2017-02-26T13:34:13.860Z,90.8
2017-02-26T13:35:16.332Z,90.8
2017-02-26T13:36:19.318Z,90.8
2017-02-26T13:37:21.773Z,90.8
2017-02-26T13:38:24.309Z,90.8
2017-02-26T13:39:27.266Z,90.7
2017-02-26T13:40:30.084Z,90.7
2017-02-26T13:41:32.546Z,90.7
2017-02-26T13:42:34.996Z,90.6
2017-02-26T13:43:38.033Z,90.6
2017-02-26T13:44:40.218Z,90.6
2017-02-26T13:45:43.187Z,90.6
2017-02-26T13:46:45.659Z,90.6
2017-02-26T13:47:47.949Z,90.7
2017-02-26T13:48:51.179Z,90.7
2017-02-26T13:49:54.157Z,90.7
2017-02-26T13:50:56.128Z,90.7
2017-02-26T13:51:59.089Z,90.7
2017-02-26T13:53:01.578Z,90.7
2017-02-26T13:54:04.618Z,90.8
2017-02-26T13:55:06.909Z,90.8
2017-02-26T13:56:09.709Z,90.8
2017-02-26T13:57:12.028Z,90.9
2017-02-26T13:58:14.980Z,90.9
2017-02-26T13:59:17.762Z,90.9
2017-02-26T14:00:20.230Z,90.9
2017-02-26T14:01:22.518Z,90.9
2017-02-26T14:02:25.478Z,90.9
2017-02-26T14:03:28.435Z,90.9
2017-02-26T14:04:31.152Z,91
2017-02-26T14:05:33.606Z,91
2017-02-26T14:06:36.067Z,91.1
2017-02-26T14:07:39.023Z,91.1
2017-02-26T14:08:41.141Z,91.1
2017-02-26T14:09:44.177Z,91
2017-02-26T14:10:46.645Z,91
2017-02-26T14:11:49.432Z,91
2017-02-26T14:12:51.891Z,90.9
2017-02-26T14:13:54.859Z,90.9
2017-02-26T14:14:58.140Z,90.9
2017-02-26T14:16:00.102Z,90.9
2017-02-26T14:17:02.891Z,91
2017-02-26T14:18:05.347Z,91
2017-02-26T14:19:07.797Z,90.9
2017-02-26T14:20:11.411Z,91
2017-02-26T14:21:13.377Z,91
2017-02-26T14:22:15.838Z,91
2017-02-26T14:24:21.041Z,91
2017-02-26T14:26:26.737Z,91
2017-02-26T14:28:32.107Z,91
2017-02-26T14:29:34.561Z,91
2017-02-26T14:30:37.055Z,91
2017-02-26T14:31:40.284Z,91
2017-02-26T14:32:42.655Z,91
2017-02-26T14:33:45.128Z,91
2017-02-26T14:34:48.088Z,91
2017-02-26T14:35:50.377Z,91
2017-02-26T14:36:53.624Z,91
2017-02-26T14:37:56.075Z,91
2017-02-26T14:38:58.383Z,91
2017-02-26T14:41:04.095Z,91
2017-02-26T14:42:06.645Z,91
2017-02-26T14:43:09.121Z,91
2017-02-26T14:44:12.088Z,91.1
2017-02-26T14:45:14.544Z,91.1
2017-02-26T14:46:17.014Z,91.1
2017-02-26T14:47:20.267Z,91.1
2017-02-26T14:48:22.714Z,91.1
2017-02-26T14:49:25.040Z,91.1
2017-02-26T14:50:27.828Z,91.1
2017-02-26T14:51:30.280Z,91.1
2017-02-26T14:53:35.947Z,91.2
2017-02-26T14:54:38.404Z,91.2
2017-02-26T14:55:40.856Z,91.2
2017-02-26T14:56:43.509Z,91.2
2017-02-26T14:57:46.300Z,91.2
2017-02-26T14:58:49.511Z,91.3
2017-02-26T14:59:51.977Z,91.3
2017-02-26T15:00:54.433Z,91.3
2017-02-26T15:01:56.889Z,91.3
2017-02-26T15:02:59.867Z,91.4
2017-02-26T15:04:02.623Z,91.4
2017-02-26T15:05:04.909Z,91.4
2017-02-26T15:06:07.885Z,91.4
2017-02-26T15:07:10.341Z,91.4
2017-02-26T15:08:12.789Z,91.4
2017-02-26T15:09:16.000Z,91.4
2017-02-26T15:10:18.455Z,91.5
2017-02-26T15:11:20.934Z,91.5
2017-02-26T15:12:23.393Z,91.5
2017-02-26T15:13:26.214Z,91.5
2017-02-26T15:14:29.256Z,91.5
2017-02-26T15:15:32.087Z,91.5
2017-02-26T15:16:34.370Z,91.5
2017-02-26T15:17:36.834Z,91.6
2017-02-26T15:18:39.637Z,91.6
2017-02-26T15:19:42.358Z,91.6
2017-02-26T15:20:44.812Z,91.6
2017-02-26T15:21:47.273Z,91.6
2017-02-26T15:22:50.235Z,91.6
2017-02-26T15:23:53.022Z,91.6
2017-02-26T15:24:55.600Z,91.6
2017-02-26T15:25:58.084Z,91.6
2017-02-26T15:27:00.542Z,91.6
2017-02-26T15:28:03.527Z,91.7
2017-02-26T15:29:05.990Z,91.7
2017-02-26T15:30:08.522Z,91.7
2017-02-26T15:31:11.492Z,91.7
2017-02-26T15:32:13.951Z,91.7
2017-02-26T15:33:16.408Z,91.8
2017-02-26T15:34:19.194Z,91.8
2017-02-26T15:35:22.455Z,91.8
2017-02-26T15:36:24.246Z,91.8
2017-02-26T15:37:27.205Z,91.8
2017-02-26T15:38:30.160Z,91.9
2017-02-26T15:39:32.613Z,91.9
2017-02-26T15:40:35.861Z,91.9
2017-02-26T15:41:37.815Z,91.9
2017-02-26T15:42:40.302Z,92
2017-02-26T15:43:43.151Z,92
2017-02-26T15:44:46.106Z,92
2017-02-26T15:45:49.397Z,92
2017-02-26T15:46:51.353Z,92
2017-02-26T15:47:53.810Z,92
2017-02-26T15:48:56.290Z,92
2017-02-26T15:49:59.244Z,92
2017-02-26T15:51:01.954Z,92.1
2017-02-26T15:52:04.419Z,92.1
2017-02-26T15:53:07.271Z,92.1
2017-02-26T15:54:09.739Z,92.1
2017-02-26T15:55:12.203Z,92.2
2017-02-26T15:56:15.411Z,92.2
2017-02-26T15:57:17.867Z,92.2
2017-02-26T15:58:20.354Z,92.2
2017-02-26T15:59:22.811Z,92.2
2017-02-26T16:00:25.767Z,92.2
2017-02-26T16:01:28.869Z,92.2
2017-02-26T16:02:30.812Z,92.2
2017-02-26T16:03:33.787Z,92.3
2017-02-26T16:04:36.245Z,92.3
2017-02-26T16:05:39.207Z,92.3
2017-02-26T16:06:41.989Z,92.3
2017-02-26T16:07:44.441Z,92.4
2017-02-26T16:08:47.448Z,92.4
2017-02-26T16:09:49.395Z,92.4
2017-02-26T16:10:52.380Z,92.4
2017-02-26T16:11:55.087Z,92.4
2017-02-26T16:12:57.397Z,92.4
2017-02-26T16:14:00.368Z,92.4
2017-02-26T16:15:02.820Z,92.4
2017-02-26T16:16:05.788Z,92.5
2017-02-26T16:17:08.500Z,92.5
2017-02-26T16:18:10.806Z,92.5
2017-02-26T16:19:13.768Z,92.5
2017-02-26T16:20:16.223Z,92.5
2017-02-26T16:21:18.699Z,92.6
2017-02-26T16:22:22.327Z,92.6
2017-02-26T16:23:24.664Z,92.6
2017-02-26T16:24:26.624Z,92.6
2017-02-26T16:26:31.989Z,92.6
2017-02-26T16:27:35.752Z,92.7
2017-02-26T16:28:37.229Z,92.7
2017-02-26T16:29:40.015Z,92.7
2017-02-26T16:30:42.815Z,92.7
2017-02-26T16:31:45.281Z,92.7
2017-02-26T16:33:50.951Z,92.8
2017-02-26T16:34:53.446Z,92.8
2017-02-26T16:35:55.902Z,92.8
2017-02-26T16:36:58.863Z,92.8
2017-02-26T16:38:01.147Z,92.8
2017-02-26T16:39:04.370Z,92.9
2017-02-26T16:40:06.715Z,92.9
2017-02-26T16:41:09.016Z,92.9
2017-02-26T16:42:11.825Z,92.9
2017-02-26T16:43:14.811Z,92.9
2017-02-26T16:44:17.557Z,92.9
2017-02-26T16:45:19.853Z,92.9
2017-02-26T16:46:22.309Z,92.9
2017-02-26T16:47:25.262Z,93
2017-02-26T16:48:27.635Z,93
2017-02-26T16:49:30.896Z,93
2017-02-26T16:50:33.363Z,93
2017-02-26T16:51:35.662Z,93
2017-02-26T16:52:38.472Z,93.1
2017-02-26T16:53:40.924Z,93.1
2017-02-26T16:54:44.156Z,93.1
2017-02-26T16:56:49.017Z,93.1
2017-02-26T16:57:51.814Z,93.1
2017-02-26T16:58:54.276Z,93.1
2017-02-26T16:59:57.038Z,93.1
2017-02-26T17:00:59.498Z,93.1
2017-02-26T17:02:02.456Z,93.1
2017-02-26T17:03:04.911Z,93.1
2017-02-26T17:04:07.896Z,93.1
2017-02-26T17:05:10.604Z,93.2
2017-02-26T17:06:13.424Z,93.2
2017-02-26T17:07:15.380Z,93.2
2017-02-26T17:08:18.339Z,93.2
2017-02-26T17:09:20.819Z,93.2
2017-02-26T17:10:23.569Z,93.2
2017-02-26T17:11:26.369Z,93.3
2017-02-26T17:12:28.662Z,93.3
2017-02-26T17:13:31.454Z,93.3
2017-02-26T17:14:33.952Z,93.3
2017-02-26T17:15:36.994Z,93.3
2017-02-26T17:16:39.279Z,93.3
2017-02-26T17:17:42.780Z,93.3
2017-02-26T17:18:44.561Z,93.3
2017-02-26T17:19:47.549Z,93.3
2017-02-26T17:20:50.256Z,93.4
2017-02-26T17:21:52.727Z,93.4
2017-02-26T17:22:55.184Z,93.4
2017-02-26T17:25:00.544Z,93.4
2017-02-26T17:26:03.806Z,93.4
2017-02-26T17:27:06.090Z,93.4
2017-02-26T17:28:08.554Z,93.4
2017-02-26T17:29:11.018Z,93.5
2017-02-26T17:30:14.022Z,93.5
2017-02-26T17:31:16.733Z,93.5
2017-02-26T17:32:19.200Z,93.5
2017-02-26T17:33:21.649Z,93.5
2017-02-26T17:34:24.610Z,93.5
2017-02-26T17:35:27.061Z,93.5
2017-02-26T17:36:30.325Z,93.5
2017-02-26T17:37:32.620Z,93.5
2017-02-26T17:38:35.076Z,93.5
2017-02-26T17:39:37.864Z,93.5
2017-02-26T17:41:43.540Z,93.6
2017-02-26T17:42:45.519Z,93.6
2017-02-26T17:43:48.312Z,93.6
2017-02-26T17:44:50.769Z,93.6
2017-02-26T17:45:53.723Z,93.6
2017-02-26T17:46:56.475Z,93.6
2017-02-26T17:47:58.971Z,93.6
2017-02-26T17:49:01.262Z,93.6
2017-02-26T17:50:04.229Z,93.6
2017-02-26T17:51:06.536Z,93.6
2017-02-26T17:52:09.582Z,93.6
2017-02-26T17:53:12.034Z,93.6
2017-02-26T17:54:14.835Z,93.6
2017-02-26T17:55:17.291Z,93.6
2017-02-26T17:56:20.252Z,93.7
2017-02-26T17:58:25.885Z,93.7
2017-02-26T17:59:28.174Z,93.7
2017-02-26T18:01:33.534Z,93.7
2017-02-26T18:02:35.840Z,93.7
2017-02-26T18:03:39.102Z,93.7
2017-02-26T18:04:41.047Z,93.7
2017-02-26T18:05:44.022Z,93.7
2017-02-26T18:06:46.491Z,93.7
2017-02-26T18:07:49.449Z,93.7
2017-02-26T18:08:52.164Z,93.7
2017-02-26T18:09:54.626Z,93.7
2017-02-26T18:10:57.079Z,93.7
2017-02-26T18:11:59.886Z,93.7
2017-02-26T18:13:02.338Z,93.7
2017-02-26T18:14:05.594Z,93.7
2017-02-26T18:15:07.538Z,93.7